sensor_id;sensor_type;location;lat;lon;timestamp;P1;durP1;ratioP1;P2;durP2;ratioP2
33740;SDS011;20065;48.380;10.892;2023-09-19T00:02:18;3.10;;;1.20;;
33740;SDS011;20065;48.380;10.892;2023-09-19T00:05:04;5.07;;;1.80;;
33740;SDS011;20065;48.380;10.892;2023-09-19T00:07:51;4.40;;;1.57;;
33740;SDS011;20065;48.380;10.892;2023-09-19T00:10:40;3.73;;;1.40;;
33740;SDS011;20065;48.380;10.892;2023-09-19T00:13:27;3.63;;;1.60;;
33740;SDS011;20065;48.380;10.892;2023-09-19T00:16:14;3.13;;;1.70;;
33740;SDS011;20065;48.380;10.892;2023-09-19T00:19:00;3.43;;;1.33;;
33740;SDS011;20065;48.380;10.892;2023-09-19T00:21:46;5.13;;;1.67;;
33740;SDS011;20065;48.380;10.892;2023-09-19T00:24:36;3.90;;;1.30;;
33740;SDS011;20065;48.380;10.892;2023-09-19T00:27:22;4.70;;;1.70;;
33740;SDS011;20065;48.380;10.892;2023-09-19T00:30:09;3.13;;;1.33;;
33740;SDS011;20065;48.380;10.892;2023-09-19T00:33:05;3.70;;;1.60;;
33740;SDS011;20065;48.380;10.892;2023-09-19T00:35:54;4.00;;;1.60;;
33740;SDS011;20065;48.380;10.892;2023-09-19T00:38:42;3.80;;;2.00;;
33740;SDS011;20065;48.380;10.892;2023-09-19T00:41:34;3.20;;;1.70;;
33740;SDS011;20065;48.380;10.892;2023-09-19T00:44:23;4.90;;;2.23;;
33740;SDS011;20065;48.380;10.892;2023-09-19T00:47:10;4.47;;;1.77;;
33740;SDS011;20065;48.380;10.892;2023-09-19T00:50:01;3.47;;;1.53;;
33740;SDS011;20065;48.380;10.892;2023-09-19T00:52:50;5.10;;;1.80;;
33740;SDS011;20065;48.380;10.892;2023-09-19T00:55:41;3.40;;;1.83;;
33740;SDS011;20065;48.380;10.892;2023-09-19T00:58:28;4.13;;;1.73;;
33740;SDS011;20065;48.380;10.892;2023-09-19T01:01:19;4.87;;;1.67;;
33740;SDS011;20065;48.380;10.892;2023-09-19T01:04:06;4.37;;;1.83;;
33740;SDS011;20065;48.380;10.892;2023-09-19T01:06:52;4.10;;;2.00;;
33740;SDS011;20065;48.380;10.892;2023-09-19T01:09:39;4.10;;;1.80;;
33740;SDS011;20065;48.380;10.892;2023-09-19T01:12:33;4.03;;;1.90;;
33740;SDS011;20065;48.380;10.892;2023-09-19T01:18:37;4.83;;;1.97;;
33740;SDS011;20065;48.380;10.892;2023-09-19T01:22:29;3.63;;;1.70;;
33740;SDS011;20065;48.380;10.892;2023-09-19T01:31:43;4.80;;;2.03;;
33740;SDS011;20065;48.380;10.892;2023-09-19T01:34:46;6.80;;;1.70;;
33740;SDS011;20065;48.380;10.892;2023-09-19T01:37:34;4.00;;;1.70;;
33740;SDS011;20065;48.380;10.892;2023-09-19T01:40:20;6.83;;;2.10;;
33740;SDS011;20065;48.380;10.892;2023-09-19T01:43:22;4.60;;;1.80;;
33740;SDS011;20065;48.380;10.892;2023-09-19T01:46:21;3.80;;;1.70;;
33740;SDS011;20065;48.380;10.892;2023-09-19T01:52:20;5.00;;;1.77;;
33740;SDS011;20065;48.380;10.892;2023-09-19T01:55:10;4.50;;;2.07;;
33740;SDS011;20065;48.380;10.892;2023-09-19T01:58:07;4.30;;;1.73;;
33740;SDS011;20065;48.380;10.892;2023-09-19T02:01:01;4.37;;;1.80;;
33740;SDS011;20065;48.380;10.892;2023-09-19T02:03:51;4.70;;;1.97;;
33740;SDS011;20065;48.380;10.892;2023-09-19T02:06:39;4.70;;;2.00;;
33740;SDS011;20065;48.380;10.892;2023-09-19T02:09:26;4.57;;;2.27;;
33740;SDS011;20065;48.380;10.892;2023-09-19T02:12:12;6.03;;;1.83;;
33740;SDS011;20065;48.380;10.892;2023-09-19T02:15:01;4.70;;;1.70;;
33740;SDS011;20065;48.380;10.892;2023-09-19T02:17:49;3.90;;;1.70;;
33740;SDS011;20065;48.380;10.892;2023-09-19T02:20:35;6.33;;;1.97;;
33740;SDS011;20065;48.380;10.892;2023-09-19T02:23:21;6.07;;;2.10;;
33740;SDS011;20065;48.380;10.892;2023-09-19T02:26:07;5.50;;;1.70;;
33740;SDS011;20065;48.380;10.892;2023-09-19T02:28:53;6.03;;;2.30;;
33740;SDS011;20065;48.380;10.892;2023-09-19T02:31:39;6.07;;;1.90;;
33740;SDS011;20065;48.380;10.892;2023-09-19T02:34:25;4.77;;;2.03;;
33740;SDS011;20065;48.380;10.892;2023-09-19T02:37:12;4.10;;;1.40;;
33740;SDS011;20065;48.380;10.892;2023-09-19T02:40:02;3.93;;;2.00;;
33740;SDS011;20065;48.380;10.892;2023-09-19T02:42:55;6.50;;;1.97;;
33740;SDS011;20065;48.380;10.892;2023-09-19T02:45:42;4.10;;;2.03;;
33740;SDS011;20065;48.380;10.892;2023-09-19T02:48:28;4.10;;;1.53;;
33740;SDS011;20065;48.380;10.892;2023-09-19T02:51:15;4.27;;;1.73;;
33740;SDS011;20065;48.380;10.892;2023-09-19T02:54:01;3.13;;;1.47;;
33740;SDS011;20065;48.380;10.892;2023-09-19T02:56:49;6.43;;;1.70;;
33740;SDS011;20065;48.380;10.892;2023-09-19T02:59:35;6.83;;;1.90;;
33740;SDS011;20065;48.380;10.892;2023-09-19T03:02:22;4.47;;;1.53;;
33740;SDS011;20065;48.380;10.892;2023-09-19T03:05:10;5.17;;;1.90;;
33740;SDS011;20065;48.380;10.892;2023-09-19T03:07:58;5.33;;;1.80;;
33740;SDS011;20065;48.380;10.892;2023-09-19T03:10:46;3.30;;;1.70;;
33740;SDS011;20065;48.380;10.892;2023-09-19T03:13:37;2.60;;;1.30;;
33740;SDS011;20065;48.380;10.892;2023-09-19T03:16:37;3.40;;;1.60;;
33740;SDS011;20065;48.380;10.892;2023-09-19T03:19:24;3.40;;;1.53;;
33740;SDS011;20065;48.380;10.892;2023-09-19T03:22:12;4.13;;;1.47;;
33740;SDS011;20065;48.380;10.892;2023-09-19T03:24:59;4.10;;;1.63;;
33740;SDS011;20065;48.380;10.892;2023-09-19T03:27:47;3.97;;;1.73;;
33740;SDS011;20065;48.380;10.892;2023-09-19T03:30:34;3.50;;;1.70;;
33740;SDS011;20065;48.380;10.892;2023-09-19T03:33:22;3.70;;;1.57;;
33740;SDS011;20065;48.380;10.892;2023-09-19T03:36:08;3.17;;;1.47;;
33740;SDS011;20065;48.380;10.892;2023-09-19T03:38:54;6.07;;;1.93;;
33740;SDS011;20065;48.380;10.892;2023-09-19T03:41:41;4.00;;;1.90;;
33740;SDS011;20065;48.380;10.892;2023-09-19T03:44:27;4.33;;;1.60;;
33740;SDS011;20065;48.380;10.892;2023-09-19T03:47:14;5.53;;;1.70;;
33740;SDS011;20065;48.380;10.892;2023-09-19T03:50:00;5.13;;;1.77;;
33740;SDS011;20065;48.380;10.892;2023-09-19T03:52:46;5.83;;;1.67;;
33740;SDS011;20065;48.380;10.892;2023-09-19T03:55:32;3.30;;;1.77;;
33740;SDS011;20065;48.380;10.892;2023-09-19T03:58:21;3.90;;;1.63;;
33740;SDS011;20065;48.380;10.892;2023-09-19T04:01:07;4.17;;;1.40;;
33740;SDS011;20065;48.380;10.892;2023-09-19T04:03:53;3.97;;;1.90;;
33740;SDS011;20065;48.380;10.892;2023-09-19T04:06:39;3.20;;;1.87;;
33740;SDS011;20065;48.380;10.892;2023-09-19T04:09:26;3.70;;;1.70;;
33740;SDS011;20065;48.380;10.892;2023-09-19T04:12:12;3.97;;;1.63;;
33740;SDS011;20065;48.380;10.892;2023-09-19T04:15:07;4.00;;;1.70;;
33740;SDS011;20065;48.380;10.892;2023-09-19T04:17:54;7.23;;;1.90;;
33740;SDS011;20065;48.380;10.892;2023-09-19T04:20:40;3.13;;;1.70;;
33740;SDS011;20065;48.380;10.892;2023-09-19T04:23:27;4.73;;;1.63;;
33740;SDS011;20065;48.380;10.892;2023-09-19T04:26:13;5.47;;;2.30;;
33740;SDS011;20065;48.380;10.892;2023-09-19T04:29:02;3.70;;;1.70;;
33740;SDS011;20065;48.380;10.892;2023-09-19T04:31:49;5.10;;;2.13;;
33740;SDS011;20065;48.380;10.892;2023-09-19T04:34:35;5.70;;;2.30;;
33740;SDS011;20065;48.380;10.892;2023-09-19T04:37:23;4.10;;;1.90;;
33740;SDS011;20065;48.380;10.892;2023-09-19T04:40:10;4.00;;;1.83;;
33740;SDS011;20065;48.380;10.892;2023-09-19T04:42:59;4.20;;;1.77;;
33740;SDS011;20065;48.380;10.892;2023-09-19T04:45:48;4.33;;;2.00;;
33740;SDS011;20065;48.380;10.892;2023-09-19T04:48:41;3.50;;;1.90;;
33740;SDS011;20065;48.380;10.892;2023-09-19T04:51:27;4.43;;;2.27;;
33740;SDS011;20065;48.380;10.892;2023-09-19T04:54:21;5.00;;;1.97;;
33740;SDS011;20065;48.380;10.892;2023-09-19T04:57:08;5.27;;;1.80;;
33740;SDS011;20065;48.380;10.892;2023-09-19T04:59:54;6.13;;;2.03;;
33740;SDS011;20065;48.380;10.892;2023-09-19T05:02:41;4.73;;;1.87;;
33740;SDS011;20065;48.380;10.892;2023-09-19T05:05:27;3.30;;;1.70;;
33740;SDS011;20065;48.380;10.892;2023-09-19T05:08:14;4.00;;;1.70;;
33740;SDS011;20065;48.380;10.892;2023-09-19T05:11:03;3.13;;;1.80;;
33740;SDS011;20065;48.380;10.892;2023-09-19T05:13:49;5.20;;;1.80;;
33740;SDS011;20065;48.380;10.892;2023-09-19T05:16:35;5.60;;;1.67;;
33740;SDS011;20065;48.380;10.892;2023-09-19T05:19:22;3.23;;;1.73;;
33740;SDS011;20065;48.380;10.892;2023-09-19T05:22:08;3.73;;;1.97;;
33740;SDS011;20065;48.380;10.892;2023-09-19T05:24:54;5.23;;;1.90;;
33740;SDS011;20065;48.380;10.892;2023-09-19T05:27:40;4.37;;;1.97;;
33740;SDS011;20065;48.380;10.892;2023-09-19T05:30:27;4.30;;;1.70;;
33740;SDS011;20065;48.380;10.892;2023-09-19T05:33:14;4.93;;;1.93;;
33740;SDS011;20065;48.380;10.892;2023-09-19T05:36:01;3.73;;;1.83;;
33740;SDS011;20065;48.380;10.892;2023-09-19T05:38:48;4.63;;;2.13;;
33740;SDS011;20065;48.380;10.892;2023-09-19T05:41:36;4.20;;;2.07;;
33740;SDS011;20065;48.380;10.892;2023-09-19T05:44:22;5.80;;;2.23;;
33740;SDS011;20065;48.380;10.892;2023-09-19T05:47:08;4.00;;;1.90;;
33740;SDS011;20065;48.380;10.892;2023-09-19T05:49:54;4.30;;;1.80;;
33740;SDS011;20065;48.380;10.892;2023-09-19T05:52:40;4.40;;;1.60;;
33740;SDS011;20065;48.380;10.892;2023-09-19T05:55:28;5.47;;;2.20;;
33740;SDS011;20065;48.380;10.892;2023-09-19T05:58:15;4.70;;;1.90;;
33740;SDS011;20065;48.380;10.892;2023-09-19T06:01:02;4.70;;;1.77;;
33740;SDS011;20065;48.380;10.892;2023-09-19T06:03:49;4.27;;;1.80;;
33740;SDS011;20065;48.380;10.892;2023-09-19T06:06:36;8.33;;;2.37;;
33740;SDS011;20065;48.380;10.892;2023-09-19T06:09:25;4.63;;;1.80;;
33740;SDS011;20065;48.380;10.892;2023-09-19T06:12:13;4.27;;;1.60;;
33740;SDS011;20065;48.380;10.892;2023-09-19T06:15:03;4.60;;;1.60;;
33740;SDS011;20065;48.380;10.892;2023-09-19T06:17:54;4.40;;;1.53;;
33740;SDS011;20065;48.380;10.892;2023-09-19T06:20:41;3.80;;;1.40;;
33740;SDS011;20065;48.380;10.892;2023-09-19T06:23:29;3.40;;;1.47;;
33740;SDS011;20065;48.380;10.892;2023-09-19T06:26:16;3.00;;;1.30;;
33740;SDS011;20065;48.380;10.892;2023-09-19T06:29:03;3.33;;;1.40;;
33740;SDS011;20065;48.380;10.892;2023-09-19T06:31:49;3.70;;;1.40;;
33740;SDS011;20065;48.380;10.892;2023-09-19T06:34:36;4.00;;;1.60;;
33740;SDS011;20065;48.380;10.892;2023-09-19T06:37:26;4.70;;;1.70;;
33740;SDS011;20065;48.380;10.892;2023-09-19T06:40:13;3.73;;;1.67;;
33740;SDS011;20065;48.380;10.892;2023-09-19T06:43:00;3.90;;;1.57;;
33740;SDS011;20065;48.380;10.892;2023-09-19T06:45:50;4.70;;;1.73;;
33740;SDS011;20065;48.380;10.892;2023-09-19T06:48:40;4.70;;;1.67;;
33740;SDS011;20065;48.380;10.892;2023-09-19T06:51:26;5.87;;;1.77;;
33740;SDS011;20065;48.380;10.892;2023-09-19T06:54:12;3.40;;;1.57;;
33740;SDS011;20065;48.380;10.892;2023-09-19T06:56:58;5.07;;;1.70;;
33740;SDS011;20065;48.380;10.892;2023-09-19T06:59:44;3.90;;;1.37;;
33740;SDS011;20065;48.380;10.892;2023-09-19T07:02:31;3.53;;;1.30;;
33740;SDS011;20065;48.380;10.892;2023-09-19T07:05:17;3.10;;;1.60;;
33740;SDS011;20065;48.380;10.892;2023-09-19T07:08:07;3.30;;;1.40;;
33740;SDS011;20065;48.380;10.892;2023-09-19T07:10:58;3.40;;;1.40;;
33740;SDS011;20065;48.380;10.892;2023-09-19T07:13:44;3.67;;;1.30;;
33740;SDS011;20065;48.380;10.892;2023-09-19T07:16:30;5.67;;;1.83;;
33740;SDS011;20065;48.380;10.892;2023-09-19T07:19:16;3.73;;;1.20;;
33740;SDS011;20065;48.380;10.892;2023-09-19T07:22:05;2.90;;;1.37;;
33740;SDS011;20065;48.380;10.892;2023-09-19T07:24:53;4.90;;;1.50;;
33740;SDS011;20065;48.380;10.892;2023-09-19T07:27:41;5.00;;;1.43;;
33740;SDS011;20065;48.380;10.892;2023-09-19T07:30:27;5.43;;;1.50;;
33740;SDS011;20065;48.380;10.892;2023-09-19T07:33:14;3.30;;;1.23;;
33740;SDS011;20065;48.380;10.892;2023-09-19T07:36:00;3.33;;;1.40;;
33740;SDS011;20065;48.380;10.892;2023-09-19T07:38:46;3.10;;;1.30;;
33740;SDS011;20065;48.380;10.892;2023-09-19T07:41:33;3.50;;;1.40;;
33740;SDS011;20065;48.380;10.892;2023-09-19T07:44:19;5.27;;;1.53;;
33740;SDS011;20065;48.380;10.892;2023-09-19T07:47:05;3.80;;;1.43;;
33740;SDS011;20065;48.380;10.892;2023-09-19T07:49:51;4.40;;;1.50;;
33740;SDS011;20065;48.380;10.892;2023-09-19T07:52:38;4.93;;;1.87;;
33740;SDS011;20065;48.380;10.892;2023-09-19T07:55:24;2.80;;;1.30;;
33740;SDS011;20065;48.380;10.892;2023-09-19T07:58:11;4.40;;;1.57;;
33740;SDS011;20065;48.380;10.892;2023-09-19T08:01:05;3.70;;;1.37;;
33740;SDS011;20065;48.380;10.892;2023-09-19T08:03:52;4.33;;;1.33;;
33740;SDS011;20065;48.380;10.892;2023-09-19T08:06:38;3.73;;;1.80;;
33740;SDS011;20065;48.380;10.892;2023-09-19T08:09:24;4.17;;;2.23;;
33740;SDS011;20065;48.380;10.892;2023-09-19T08:12:11;4.43;;;1.87;;
33740;SDS011;20065;48.380;10.892;2023-09-19T08:14:57;3.53;;;1.33;;
33740;SDS011;20065;48.380;10.892;2023-09-19T08:17:43;6.40;;;1.50;;
33740;SDS011;20065;48.380;10.892;2023-09-19T08:20:30;2.90;;;1.30;;
33740;SDS011;20065;48.380;10.892;2023-09-19T08:23:17;9.20;;;1.20;;
33740;SDS011;20065;48.380;10.892;2023-09-19T08:26:06;3.97;;;1.50;;
33740;SDS011;20065;48.380;10.892;2023-09-19T08:28:53;3.30;;;1.30;;
33740;SDS011;20065;48.380;10.892;2023-09-19T08:31:41;4.20;;;1.50;;
33740;SDS011;20065;48.380;10.892;2023-09-19T08:34:27;3.87;;;1.50;;
33740;SDS011;20065;48.380;10.892;2023-09-19T08:37:13;2.10;;;0.97;;
33740;SDS011;20065;48.380;10.892;2023-09-19T08:39:59;2.90;;;1.30;;
33740;SDS011;20065;48.380;10.892;2023-09-19T08:42:52;3.70;;;1.10;;
33740;SDS011;20065;48.380;10.892;2023-09-19T08:45:40;3.27;;;1.30;;
33740;SDS011;20065;48.380;10.892;2023-09-19T08:48:26;4.00;;;1.13;;
33740;SDS011;20065;48.380;10.892;2023-09-19T08:51:26;3.60;;;1.63;;
33740;SDS011;20065;48.380;10.892;2023-09-19T08:54:22;3.00;;;1.07;;
33740;SDS011;20065;48.380;10.892;2023-09-19T08:57:14;6.70;;;1.53;;
33740;SDS011;20065;48.380;10.892;2023-09-19T09:00:07;2.80;;;1.30;;
33740;SDS011;20065;48.380;10.892;2023-09-19T09:02:58;8.20;;;1.57;;
33740;SDS011;20065;48.380;10.892;2023-09-19T09:05:46;4.07;;;1.20;;
33740;SDS011;20065;48.380;10.892;2023-09-19T09:08:33;4.50;;;1.20;;
33740;SDS011;20065;48.380;10.892;2023-09-19T09:11:19;2.47;;;1.00;;
33740;SDS011;20065;48.380;10.892;2023-09-19T09:14:06;2.13;;;1.00;;
33740;SDS011;20065;48.380;10.892;2023-09-19T09:16:53;2.00;;;0.80;;
33740;SDS011;20065;48.380;10.892;2023-09-19T09:19:44;4.13;;;1.30;;
33740;SDS011;20065;48.380;10.892;2023-09-19T09:22:30;2.73;;;1.37;;
33740;SDS011;20065;48.380;10.892;2023-09-19T09:25:17;3.80;;;1.10;;
33740;SDS011;20065;48.380;10.892;2023-09-19T09:28:03;2.80;;;1.00;;
33740;SDS011;20065;48.380;10.892;2023-09-19T09:30:50;5.50;;;1.20;;
33740;SDS011;20065;48.380;10.892;2023-09-19T09:33:36;2.50;;;1.20;;
33740;SDS011;20065;48.380;10.892;2023-09-19T09:36:39;2.57;;;1.00;;
33740;SDS011;20065;48.380;10.892;2023-09-19T09:39:32;3.40;;;1.03;;
33740;SDS011;20065;48.380;10.892;2023-09-19T09:42:36;2.43;;;1.10;;
33740;SDS011;20065;48.380;10.892;2023-09-19T09:45:27;2.97;;;1.23;;
33740;SDS011;20065;48.380;10.892;2023-09-19T09:48:24;3.87;;;1.10;;
33740;SDS011;20065;48.380;10.892;2023-09-19T09:51:29;4.50;;;1.60;;
33740;SDS011;20065;48.380;10.892;2023-09-19T09:54:30;2.83;;;1.20;;
33740;SDS011;20065;48.380;10.892;2023-09-19T09:57:24;5.93;;;1.30;;
33740;SDS011;20065;48.380;10.892;2023-09-19T10:00:13;2.80;;;1.30;;
33740;SDS011;20065;48.380;10.892;2023-09-19T10:02:59;2.70;;;1.07;;
33740;SDS011;20065;48.380;10.892;2023-09-19T10:05:54;3.80;;;1.20;;
33740;SDS011;20065;48.380;10.892;2023-09-19T10:08:45;3.10;;;1.33;;
33740;SDS011;20065;48.380;10.892;2023-09-19T10:12:02;4.03;;;1.37;;
33740;SDS011;20065;48.380;10.892;2023-09-19T10:14:54;3.87;;;1.20;;
33740;SDS011;20065;48.380;10.892;2023-09-19T10:17:46;2.50;;;1.00;;
33740;SDS011;20065;48.380;10.892;2023-09-19T10:20:33;3.43;;;1.00;;
33740;SDS011;20065;48.380;10.892;2023-09-19T10:23:28;3.23;;;1.00;;
33740;SDS011;20065;48.380;10.892;2023-09-19T10:26:19;3.50;;;1.20;;
33740;SDS011;20065;48.380;10.892;2023-09-19T10:29:06;3.13;;;1.40;;
33740;SDS011;20065;48.380;10.892;2023-09-19T10:31:56;3.00;;;1.10;;
33740;SDS011;20065;48.380;10.892;2023-09-19T10:34:48;2.60;;;1.10;;
33740;SDS011;20065;48.380;10.892;2023-09-19T10:37:35;4.20;;;1.40;;
33740;SDS011;20065;48.380;10.892;2023-09-19T10:40:23;2.87;;;1.10;;
33740;SDS011;20065;48.380;10.892;2023-09-19T10:43:18;4.47;;;1.10;;
33740;SDS011;20065;48.380;10.892;2023-09-19T10:46:09;3.03;;;1.30;;
33740;SDS011;20065;48.380;10.892;2023-09-19T10:49:00;3.50;;;1.80;;
33740;SDS011;20065;48.380;10.892;2023-09-19T10:51:49;3.30;;;1.60;;
33740;SDS011;20065;48.380;10.892;2023-09-19T10:54:42;9.53;;;1.83;;
33740;SDS011;20065;48.380;10.892;2023-09-19T10:57:36;8.23;;;1.70;;
33740;SDS011;20065;48.380;10.892;2023-09-19T11:00:23;4.47;;;1.30;;
33740;SDS011;20065;48.380;10.892;2023-09-19T11:06:09;3.10;;;1.30;;
33740;SDS011;20065;48.380;10.892;2023-09-19T11:09:04;4.53;;;1.33;;
33740;SDS011;20065;48.380;10.892;2023-09-19T11:11:56;8.00;;;1.73;;
33740;SDS011;20065;48.380;10.892;2023-09-19T11:14:43;4.03;;;1.40;;
33740;SDS011;20065;48.380;10.892;2023-09-19T11:20:37;6.60;;;2.00;;
33740;SDS011;20065;48.380;10.892;2023-09-19T11:23:27;3.20;;;1.47;;
33740;SDS011;20065;48.380;10.892;2023-09-19T11:26:32;4.77;;;1.33;;
33740;SDS011;20065;48.380;10.892;2023-09-19T11:29:27;3.57;;;1.10;;
33740;SDS011;20065;48.380;10.892;2023-09-19T11:32:15;3.70;;;1.60;;
33740;SDS011;20065;48.380;10.892;2023-09-19T11:35:06;3.90;;;1.63;;
33740;SDS011;20065;48.380;10.892;2023-09-19T11:40:44;5.00;;;1.63;;
33740;SDS011;20065;48.380;10.892;2023-09-19T11:43:37;4.73;;;1.67;;
33740;SDS011;20065;48.380;10.892;2023-09-19T11:46:25;6.13;;;1.70;;
33740;SDS011;20065;48.380;10.892;2023-09-19T11:49:13;5.07;;;1.67;;
33740;SDS011;20065;48.380;10.892;2023-09-19T11:55:07;2.40;;;1.10;;
33740;SDS011;20065;48.380;10.892;2023-09-19T11:57:56;2.80;;;1.10;;
33740;SDS011;20065;48.380;10.892;2023-09-19T12:00:42;5.30;;;1.37;;
33740;SDS011;20065;48.380;10.892;2023-09-19T12:03:31;5.23;;;1.10;;
33740;SDS011;20065;48.380;10.892;2023-09-19T12:06:18;3.43;;;1.37;;
33740;SDS011;20065;48.380;10.892;2023-09-19T12:09:11;4.47;;;1.17;;
33740;SDS011;20065;48.380;10.892;2023-09-19T12:12:02;3.07;;;1.33;;
33740;SDS011;20065;48.380;10.892;2023-09-19T12:14:49;4.27;;;1.37;;
33740;SDS011;20065;48.380;10.892;2023-09-19T12:17:36;5.40;;;1.70;;
33740;SDS011;20065;48.380;10.892;2023-09-19T12:20:24;3.03;;;1.10;;
33740;SDS011;20065;48.380;10.892;2023-09-19T12:23:13;3.27;;;1.40;;
33740;SDS011;20065;48.380;10.892;2023-09-19T12:26:01;5.07;;;1.23;;
33740;SDS011;20065;48.380;10.892;2023-09-19T12:28:57;2.60;;;1.30;;
33740;SDS011;20065;48.380;10.892;2023-09-19T12:32:02;4.03;;;1.30;;
33740;SDS011;20065;48.380;10.892;2023-09-19T12:34:52;2.70;;;1.40;;
33740;SDS011;20065;48.380;10.892;2023-09-19T12:37:51;2.90;;;0.90;;
33740;SDS011;20065;48.380;10.892;2023-09-19T12:40:41;3.27;;;1.00;;
33740;SDS011;20065;48.380;10.892;2023-09-19T12:43:28;3.83;;;1.10;;
33740;SDS011;20065;48.380;10.892;2023-09-19T12:46:19;5.50;;;1.53;;
33740;SDS011;20065;48.380;10.892;2023-09-19T12:52:04;4.53;;;1.40;;
33740;SDS011;20065;48.380;10.892;2023-09-19T12:54:50;5.23;;;1.50;;
33740;SDS011;20065;48.380;10.892;2023-09-19T12:57:37;3.13;;;1.10;;
33740;SDS011;20065;48.380;10.892;2023-09-19T13:00:34;3.40;;;1.23;;
33740;SDS011;20065;48.380;10.892;2023-09-19T13:06:16;3.70;;;1.10;;
33740;SDS011;20065;48.380;10.892;2023-09-19T13:09:12;4.13;;;1.57;;
33740;SDS011;20065;48.380;10.892;2023-09-19T13:12:00;2.60;;;1.00;;
33740;SDS011;20065;48.380;10.892;2023-09-19T13:14:48;3.97;;;1.50;;
33740;SDS011;20065;48.380;10.892;2023-09-19T13:18:10;4.03;;;1.30;;
33740;SDS011;20065;48.380;10.892;2023-09-19T13:21:08;3.00;;;1.30;;
33740;SDS011;20065;48.380;10.892;2023-09-19T13:27:11;2.73;;;1.13;;
33740;SDS011;20065;48.380;10.892;2023-09-19T13:29:58;2.50;;;1.40;;
33740;SDS011;20065;48.380;10.892;2023-09-19T13:32:44;4.53;;;1.20;;
33740;SDS011;20065;48.380;10.892;2023-09-19T13:35:32;2.73;;;1.10;;
33740;SDS011;20065;48.380;10.892;2023-09-19T13:38:19;2.83;;;1.20;;
33740;SDS011;20065;48.380;10.892;2023-09-19T13:41:07;4.40;;;1.30;;
33740;SDS011;20065;48.380;10.892;2023-09-19T13:43:55;2.90;;;1.07;;
33740;SDS011;20065;48.380;10.892;2023-09-19T13:46:42;2.50;;;1.17;;
33740;SDS011;20065;48.380;10.892;2023-09-19T13:49:34;6.10;;;1.50;;
33740;SDS011;20065;48.380;10.892;2023-09-19T13:52:20;2.80;;;1.10;;
33740;SDS011;20065;48.380;10.892;2023-09-19T13:55:08;2.80;;;1.30;;
33740;SDS011;20065;48.380;10.892;2023-09-19T13:57:55;4.47;;;1.40;;
33740;SDS011;20065;48.380;10.892;2023-09-19T14:00:41;3.03;;;1.30;;
33740;SDS011;20065;48.380;10.892;2023-09-19T14:03:28;3.27;;;1.40;;
33740;SDS011;20065;48.380;10.892;2023-09-19T14:06:14;3.23;;;1.40;;
33740;SDS011;20065;48.380;10.892;2023-09-19T14:09:03;2.90;;;1.10;;
33740;SDS011;20065;48.380;10.892;2023-09-19T14:11:50;4.07;;;1.40;;
33740;SDS011;20065;48.380;10.892;2023-09-19T14:14:38;2.93;;;1.30;;
33740;SDS011;20065;48.380;10.892;2023-09-19T14:17:24;2.50;;;1.03;;
33740;SDS011;20065;48.380;10.892;2023-09-19T14:20:12;4.27;;;1.30;;
33740;SDS011;20065;48.380;10.892;2023-09-19T14:23:04;3.60;;;1.30;;
33740;SDS011;20065;48.380;10.892;2023-09-19T14:25:56;3.07;;;1.10;;
33740;SDS011;20065;48.380;10.892;2023-09-19T14:28:58;3.17;;;1.43;;
33740;SDS011;20065;48.380;10.892;2023-09-19T14:31:44;3.33;;;1.50;;
33740;SDS011;20065;48.380;10.892;2023-09-19T14:34:30;4.13;;;1.60;;
33740;SDS011;20065;48.380;10.892;2023-09-19T14:37:17;3.60;;;1.17;;
33740;SDS011;20065;48.380;10.892;2023-09-19T14:40:03;5.33;;;1.57;;
33740;SDS011;20065;48.380;10.892;2023-09-19T14:42:53;3.93;;;1.53;;
33740;SDS011;20065;48.380;10.892;2023-09-19T14:45:40;5.23;;;1.20;;
33740;SDS011;20065;48.380;10.892;2023-09-19T14:48:26;3.40;;;1.40;;
33740;SDS011;20065;48.380;10.892;2023-09-19T14:51:12;3.77;;;1.33;;
33740;SDS011;20065;48.380;10.892;2023-09-19T14:53:59;2.80;;;1.23;;
33740;SDS011;20065;48.380;10.892;2023-09-19T14:56:47;3.20;;;1.40;;
33740;SDS011;20065;48.380;10.892;2023-09-19T14:59:39;3.23;;;1.10;;
33740;SDS011;20065;48.380;10.892;2023-09-19T15:02:25;4.60;;;1.20;;
33740;SDS011;20065;48.380;10.892;2023-09-19T15:05:11;3.00;;;1.30;;
33740;SDS011;20065;48.380;10.892;2023-09-19T15:07:57;4.53;;;1.50;;
33740;SDS011;20065;48.380;10.892;2023-09-19T15:10:49;3.80;;;1.30;;
33740;SDS011;20065;48.380;10.892;2023-09-19T15:13:38;2.93;;;1.30;;
33740;SDS011;20065;48.380;10.892;2023-09-19T15:16:24;3.80;;;1.70;;
33740;SDS011;20065;48.380;10.892;2023-09-19T15:19:10;3.23;;;1.60;;
33740;SDS011;20065;48.380;10.892;2023-09-19T15:21:56;3.10;;;1.33;;
33740;SDS011;20065;48.380;10.892;2023-09-19T15:24:43;4.50;;;1.40;;
33740;SDS011;20065;48.380;10.892;2023-09-19T15:27:29;6.30;;;1.43;;
33740;SDS011;20065;48.380;10.892;2023-09-19T15:30:18;3.77;;;1.27;;
33740;SDS011;20065;48.380;10.892;2023-09-19T15:33:04;3.00;;;1.50;;
33740;SDS011;20065;48.380;10.892;2023-09-19T15:35:51;4.57;;;1.47;;
33740;SDS011;20065;48.380;10.892;2023-09-19T15:41:45;4.70;;;1.30;;
33740;SDS011;20065;48.380;10.892;2023-09-19T15:44:34;3.50;;;1.50;;
33740;SDS011;20065;48.380;10.892;2023-09-19T15:47:22;4.00;;;1.30;;
33740;SDS011;20065;48.380;10.892;2023-09-19T15:50:08;4.17;;;1.50;;
33740;SDS011;20065;48.380;10.892;2023-09-19T15:52:55;3.30;;;1.40;;
33740;SDS011;20065;48.380;10.892;2023-09-19T15:55:43;3.83;;;1.63;;
33740;SDS011;20065;48.380;10.892;2023-09-19T15:58:29;5.93;;;1.17;;
33740;SDS011;20065;48.380;10.892;2023-09-19T16:01:15;2.60;;;1.20;;
33740;SDS011;20065;48.380;10.892;2023-09-19T16:04:02;3.90;;;1.37;;
33740;SDS011;20065;48.380;10.892;2023-09-19T16:06:48;4.10;;;1.53;;
33740;SDS011;20065;48.380;10.892;2023-09-19T16:09:36;3.00;;;1.27;;
33740;SDS011;20065;48.380;10.892;2023-09-19T16:12:22;3.17;;;1.30;;
33740;SDS011;20065;48.380;10.892;2023-09-19T16:15:09;7.37;;;1.40;;
33740;SDS011;20065;48.380;10.892;2023-09-19T16:18:00;3.57;;;1.37;;
33740;SDS011;20065;48.380;10.892;2023-09-19T16:20:47;3.50;;;1.40;;
33740;SDS011;20065;48.380;10.892;2023-09-19T16:23:33;3.03;;;1.23;;
33740;SDS011;20065;48.380;10.892;2023-09-19T16:26:20;3.33;;;1.30;;
33740;SDS011;20065;48.380;10.892;2023-09-19T16:29:09;3.57;;;1.60;;
33740;SDS011;20065;48.380;10.892;2023-09-19T16:31:55;5.43;;;1.80;;
33740;SDS011;20065;48.380;10.892;2023-09-19T16:34:41;2.80;;;1.50;;
33740;SDS011;20065;48.380;10.892;2023-09-19T16:37:27;3.43;;;1.40;;
33740;SDS011;20065;48.380;10.892;2023-09-19T16:40:13;3.00;;;1.60;;
33740;SDS011;20065;48.380;10.892;2023-09-19T16:43:00;5.60;;;1.37;;
33740;SDS011;20065;48.380;10.892;2023-09-19T16:45:53;4.17;;;1.70;;
33740;SDS011;20065;48.380;10.892;2023-09-19T16:48:44;3.13;;;1.40;;
33740;SDS011;20065;48.380;10.892;2023-09-19T16:51:31;3.10;;;1.57;;
33740;SDS011;20065;48.380;10.892;2023-09-19T16:54:18;6.20;;;1.57;;
33740;SDS011;20065;48.380;10.892;2023-09-19T16:57:04;3.20;;;1.57;;
33740;SDS011;20065;48.380;10.892;2023-09-19T16:59:50;5.37;;;1.60;;
33740;SDS011;20065;48.380;10.892;2023-09-19T17:02:36;3.70;;;1.73;;
33740;SDS011;20065;48.380;10.892;2023-09-19T17:05:23;3.20;;;1.30;;
33740;SDS011;20065;48.380;10.892;2023-09-19T17:08:09;4.47;;;1.80;;
33740;SDS011;20065;48.380;10.892;2023-09-19T17:11:08;3.17;;;1.80;;
33740;SDS011;20065;48.380;10.892;2023-09-19T17:13:55;3.10;;;1.60;;
33740;SDS011;20065;48.380;10.892;2023-09-19T17:16:42;3.10;;;1.40;;
33740;SDS011;20065;48.380;10.892;2023-09-19T17:19:30;4.93;;;1.60;;